Terminal Aerodrome Forecast
Issued by NWS Cleveland, OH

Home | Current Version | Previous Version | Text Only | Print | Product List | Glossary On
Versions: 1 2 3 4 5 6 7 8 9 10 11 12 13 14 15
838
FTUS41 KCLE 290530
TAFCAK
TAF
KCAK 290530Z 2906/3006 06006KT 6SM -RA BR SCT006 OVC015
      TEMPO 2907/2911 3SM -RA BR BKN006
     FM291200 09008KT 5SM BR VCSH BKN006 OVC015
     FM292000 08012G20KT 4SM -RA OVC006=

USA.gov is the U.S. government's official web portal to all federal, state and local government web resources and services.